Nephi, UT

10:28 AM MDT on September 21, 2014 (GMT -0600)
Ironrod | Change Station
CLOSE
Current Station
Personal Weather Station
Location: Elk Ridge, UT
Elevation: 5420 ft
Nearby Weather Stations

Elev 5420 ft 40.01 °N, 111.68 °W | Updated 3 minutes ago

Rain
Rain
61.2 °F
Feels Like 61.2 °F
N
4.0
Wind Variable Wind from NE
Gusts 6.0 mph

Today
High -- | Low -- °F
--% Chance of Precip.
Yesterday
High -- | Low -- °F
Precip. -- in
7:14 AM 7:25 PM
Waning Crescent, 6% visible
Pressure 30.20 in
Visibility 10.0 miles
Clouds Mostly Cloudy 8000 ft
Overcast 10000 ft
Dew Point 54 °F
Humidity 79%
Rainfall 0.00 in
Snow Depth 2 in , 0 in , 0 in
UV 1 out of 12
Pollen 3.80 out of 12
Air Quality Not available.
Flu Activity Not available.
METAR KPVU 211555Z 19004KT 10SM -RA BKN080 OVC100 17/14 A3020

More Conditions Fewer Conditions

Pressure 30.20 in
Visibility 10.0 miles
Clouds Mostly Cloudy 8000 ft
Overcast 10000 ft
Dew Point 54 °F
Humidity 79%
Rainfall 0.00 in
Snow Depth 2 in , 0 in , 0 in
UV 1 out of 12
Pollen 3.80 out of 12
Air Quality Not available.
Flu Activity Not available.
METAR KPVU 211555Z 19004KT 10SM -RA BKN080 OVC100 17/14 A3020

More Conditions Fewer Conditions

10-Day Weather Forecast

Almanac

Astronomy

Sep. 21, 2014 Rise Set
Actual Time 7:14 AM MDT 7:25 PM MDT
Civil Twilight 6:47 AM MDT 7:52 PM MDT
Nautical Twilight 6:15 AM MDT 8:24 PM MDT
Astronomical Twilight 5:43 AM MDT 8:56 PM MDT
Moon 4:51 AM MDT 6:03 PM MDT
Length of Visible Light 13h 05m
Length of Day
12h 11m
Tomorrow will be 2m 36s shorter.
Waning Crescent, 6% of the Moon is Illuminated
Today
Waning Crescent
Sep 24
New
Oct 1
First Quarter
Oct 8
Full
Oct 15
Last Quarter

Today's Extremes

State Highs State Lows

Community

WunderPhotos

Upload Photos

1,755,183 photos uploaded!

Nearby

Snow Depth

Station Depth Elevation
Lakefork #1 2 in 10100 ft
Little Bear 0 in 6550 ft
Agua Canyon 0 in 8900 ft
Thaynes Canyon 0 in 9200 ft
Rock Creek 1 in 7900 ft

Earthquake Activity

City Distance Mag. Time & Date
No recent earthquake activity has been reported nearby.
Minimum magnitude displayed is 2.5.

Coastal Water Temperatures

Place Temperature
No Stations Reporting

Nearby Weather Stations